createdAt,value
2019-02-20T00:01:29.844Z,1.05
2019-02-20T00:03:57.898Z,1.03
2019-02-20T00:06:25.889Z,0.99
2019-02-20T00:08:53.859Z,0.93
2019-02-20T00:11:21.954Z,0.96
2019-02-20T00:13:50.228Z,0.89
2019-02-20T00:16:18.510Z,0.82
2019-02-20T00:18:46.542Z,0.95
2019-02-20T00:21:14.423Z,0.97
2019-02-20T00:23:42.606Z,1.00
2019-02-20T00:26:10.448Z,1.02
2019-02-20T00:28:38.699Z,1.06
2019-02-20T00:31:06.490Z,1.09
2019-02-20T00:33:34.452Z,1.11
2019-02-20T00:36:02.315Z,1.06
2019-02-20T00:38:30.489Z,1.02
2019-02-20T00:40:58.556Z,0.99
2019-02-20T00:43:26.665Z,0.96
2019-02-20T00:46:12.347Z,0.94
2019-02-20T00:48:50.981Z,0.93
2019-02-20T00:51:35.347Z,0.85
2019-02-20T00:54:04.636Z,0.75
2019-02-20T00:56:32.488Z,0.63
2019-02-20T00:59:00.467Z,0.79
2019-02-20T01:01:28.439Z,0.85
2019-02-20T01:03:56.643Z,0.84
2019-02-20T01:06:24.839Z,0.79
2019-02-20T01:08:52.893Z,0.83
2019-02-20T01:11:21.108Z,0.82
2019-02-20T01:13:49.178Z,0.69
2019-02-20T01:16:19.230Z,0.73
2019-02-20T01:18:47.246Z,0.77
2019-02-20T01:21:15.158Z,0.78
2019-02-20T01:23:43.128Z,0.74
2019-02-20T01:26:11.281Z,0.77
2019-02-20T01:28:39.292Z,0.74
2019-02-20T01:31:07.355Z,0.73
2019-02-20T01:33:35.293Z,0.49
2019-02-20T01:36:04.727Z,0.46
2019-02-20T01:38:33.156Z,0.52
2019-02-20T01:41:01.121Z,0.54
2019-02-20T01:43:29.137Z,0.56
2019-02-20T01:45:56.986Z,0.47
2019-02-20T01:48:25.062Z,0.52
2019-02-20T01:50:53.029Z,0.61
2019-02-20T01:53:21.799Z,0.66
2019-02-20T01:55:49.891Z,0.59
2019-02-20T01:58:18.893Z,0.59
2019-02-20T02:00:46.872Z,0.64
2019-02-20T02:03:14.950Z,0.61
2019-02-20T02:05:42.835Z,0.58
2019-02-20T02:08:11.093Z,0.52
2019-02-20T02:10:39.167Z,0.59
2019-02-20T02:13:07.188Z,0.56
2019-02-20T02:15:35.131Z,0.49
2019-02-20T02:18:03.183Z,0.35
2019-02-20T02:20:31.448Z,0.28
2019-02-20T02:22:59.423Z,0.25
2019-02-20T02:25:27.963Z,0.18
2019-02-20T02:27:55.920Z,0.23
2019-02-20T02:30:24.037Z,0.32
2019-02-20T02:32:51.968Z,0.31
2019-02-20T02:35:20.063Z,0.35
2019-02-20T02:37:48.159Z,0.36
2019-02-20T02:40:16.268Z,0.41
2019-02-20T02:42:44.264Z,0.41
2019-02-20T02:45:12.122Z,0.42
2019-02-20T02:47:39.886Z,0.41
2019-02-20T02:50:07.784Z,0.39
2019-02-20T02:52:35.920Z,0.21
2019-02-20T02:55:04.231Z,0.30
2019-02-20T02:57:33.258Z,0.33
2019-02-20T03:00:01.115Z,0.33
2019-02-20T03:02:30.673Z,0.22
2019-02-20T03:04:58.562Z,0.15
2019-02-20T03:07:26.615Z,-0.03
2019-02-20T03:09:54.583Z,0.03
2019-02-20T03:12:22.657Z,0.14
2019-02-20T03:14:50.532Z,0.13
2019-02-20T03:17:18.491Z,0.11
2019-02-20T03:19:46.271Z,0.04
2019-02-20T03:22:14.293Z,0.13
2019-02-20T03:24:42.326Z,0.06
2019-02-20T03:27:10.497Z,0.04
2019-02-20T03:29:39.477Z,0.07
2019-02-20T03:32:07.622Z,0.10
2019-02-20T03:34:36.704Z,0.08
2019-02-20T03:37:05.666Z,0.03
2019-02-20T03:39:33.850Z,0.05
2019-02-20T03:42:01.833Z,-0.07
2019-02-20T03:44:29.797Z,-0.01
2019-02-20T03:46:57.836Z,-0.08
2019-02-20T03:49:27.000Z,0.01
2019-02-20T03:51:55.046Z,0.04
2019-02-20T03:54:23.104Z,0.02
2019-02-20T03:56:51.361Z,-0.05
2019-02-20T03:59:19.538Z,0.00
2019-02-20T04:01:47.660Z,0.01
2019-02-20T04:04:15.683Z,0.02
2019-02-20T04:06:45.254Z,0.07
2019-02-20T04:09:13.258Z,0.06
2019-02-20T04:11:41.129Z,0.04
2019-02-20T04:14:08.916Z,0.11
2019-02-20T04:16:36.947Z,0.10
2019-02-20T04:19:04.784Z,-0.05
2019-02-20T04:21:32.736Z,0.01
2019-02-20T04:24:02.829Z,-0.02
2019-02-20T04:26:31.858Z,0.02
2019-02-20T04:28:59.921Z,0.07
2019-02-20T04:31:28.123Z,0.02
2019-02-20T04:33:56.212Z,0.06
2019-02-20T04:36:24.516Z,-0.02
2019-02-20T04:38:52.472Z,-0.16
2019-02-20T04:41:20.367Z,-0.24
2019-02-20T04:43:48.398Z,-0.23
2019-02-20T04:46:17.425Z,-0.13
2019-02-20T04:48:45.296Z,-0.10
2019-02-20T04:51:13.298Z,-0.11
2019-02-20T04:53:41.366Z,-0.09
2019-02-20T04:56:09.589Z,-0.04
2019-02-20T04:58:37.506Z,0.02
2019-02-20T05:01:05.444Z,0.09
2019-02-20T05:03:33.238Z,0.06
2019-02-20T05:06:01.271Z,0.07
2019-02-20T05:08:29.176Z,0.12
2019-02-20T05:10:57.149Z,0.04
2019-02-20T05:13:25.094Z,0.06
2019-02-20T05:15:54.169Z,0.16
2019-02-20T05:18:22.251Z,0.20
2019-02-20T05:20:50.222Z,0.27
2019-02-20T05:23:18.188Z,0.30
2019-02-20T05:25:46.165Z,0.36
2019-02-20T05:28:14.225Z,0.41
2019-02-20T05:30:42.161Z,0.52
2019-02-20T05:33:10.988Z,0.58
2019-02-20T05:35:38.983Z,0.55
2019-02-20T05:38:06.994Z,0.58
2019-02-20T05:40:34.761Z,0.64
2019-02-20T05:43:02.620Z,0.69
2019-02-20T05:45:30.325Z,0.67
2019-02-20T05:47:58.263Z,0.59
2019-02-20T05:50:26.207Z,0.58
2019-02-20T05:52:54.216Z,0.50
2019-02-20T05:55:22.064Z,0.39
2019-02-20T05:57:50.183Z,0.48
2019-02-20T06:00:18.247Z,0.45
2019-02-20T06:02:46.280Z,0.46
2019-02-20T06:05:14.095Z,0.52
2019-02-20T06:07:42.363Z,0.46
2019-02-20T06:10:10.161Z,0.52
2019-02-20T06:12:38.170Z,0.53
2019-02-20T06:15:06.081Z,0.54
2019-02-20T06:17:34.218Z,0.59
2019-02-20T06:20:02.053Z,0.74
2019-02-20T06:22:30.132Z,0.88
2019-02-20T06:24:58.118Z,0.94
2019-02-20T06:27:26.076Z,1.05
2019-02-20T06:29:53.881Z,1.18
2019-02-20T06:32:23.998Z,1.38
2019-02-20T06:34:51.630Z,1.60
2019-02-20T06:37:19.684Z,1.71
2019-02-20T06:39:47.845Z,1.56
2019-02-20T06:42:15.629Z,1.67
2019-02-20T06:44:43.711Z,1.59
2019-02-20T06:47:11.780Z,1.59
2019-02-20T06:49:39.577Z,1.62
2019-02-20T06:52:07.515Z,1.65
2019-02-20T06:54:36.371Z,1.73
2019-02-20T06:57:04.337Z,1.85
2019-02-20T06:59:32.377Z,1.96
2019-02-20T07:02:00.409Z,2.03
2019-02-20T07:04:28.242Z,2.11
2019-02-20T07:07:34.145Z,2.25
2019-02-20T07:10:47.742Z,2.29
2019-02-20T07:14:00.606Z,2.35
2019-02-20T07:17:14.998Z,2.49
2019-02-20T07:19:55.416Z,2.62
2019-02-20T07:23:04.350Z,2.81
2019-02-20T07:26:31.802Z,2.87
2019-02-20T07:29:23.530Z,3.02
2019-02-20T07:31:51.397Z,3.25
2019-02-20T07:34:19.527Z,3.43
2019-02-20T07:36:47.612Z,3.51
2019-02-20T07:39:15.448Z,3.63
2019-02-20T07:41:43.512Z,3.77
2019-02-20T07:44:11.404Z,3.88
2019-02-20T07:46:39.645Z,4.21
2019-02-20T07:49:07.582Z,4.48
2019-02-20T07:51:35.610Z,4.73
2019-02-20T07:54:03.525Z,4.96
2019-02-20T07:56:31.419Z,5.21
2019-02-20T07:58:59.214Z,5.43
2019-02-20T08:01:27.253Z,5.97
2019-02-20T08:03:55.080Z,6.24
2019-02-20T08:06:23.164Z,6.71
2019-02-20T08:08:51.360Z,6.98
2019-02-20T08:11:19.550Z,7.20
2019-02-20T08:13:47.429Z,7.18
2019-02-20T08:16:15.388Z,7.12
2019-02-20T08:18:43.316Z,7.16
2019-02-20T08:21:11.334Z,7.33
2019-02-20T08:23:39.350Z,7.35
2019-02-20T08:26:07.426Z,7.45
2019-02-20T08:28:35.368Z,7.39
2019-02-20T08:31:03.289Z,7.53
2019-02-20T08:33:31.210Z,7.71
2019-02-20T08:35:59.446Z,7.67
2019-02-20T08:38:27.207Z,7.70
2019-02-20T08:40:55.405Z,7.76
2019-02-20T08:43:23.284Z,7.88
2019-02-20T08:45:51.326Z,7.78
2019-02-20T08:48:19.121Z,8.03
2019-02-20T08:50:47.267Z,8.01
2019-02-20T08:53:15.364Z,8.33
2019-02-20T08:55:43.416Z,8.64
2019-02-20T08:58:11.304Z,8.66
2019-02-20T09:00:39.236Z,8.79
2019-02-20T09:03:07.028Z,8.81
2019-02-20T09:05:34.944Z,8.94
2019-02-20T09:08:02.979Z,9.09
2019-02-20T09:10:30.524Z,9.40
2019-02-20T09:12:59.665Z,9.80
2019-02-20T09:15:27.581Z,9.88
2019-02-20T09:17:55.510Z,9.80
2019-02-20T09:20:23.623Z,9.73
2019-02-20T09:22:51.653Z,9.80
2019-02-20T09:25:20.264Z,9.73
2019-02-20T09:27:48.031Z,9.67
2019-02-20T09:30:16.045Z,9.93
2019-02-20T09:32:44.140Z,9.92
2019-02-20T09:35:12.434Z,9.93
2019-02-20T09:37:40.354Z,9.89
2019-02-20T09:40:11.258Z,9.87
2019-02-20T09:42:40.153Z,9.76
2019-02-20T09:45:08.167Z,9.78
2019-02-20T09:47:36.273Z,9.66
2019-02-20T09:50:04.677Z,9.84
2019-02-20T09:52:32.542Z,9.91
2019-02-20T09:55:01.362Z,9.96
2019-02-20T09:57:30.368Z,10.12
2019-02-20T09:59:58.135Z,10.05
2019-02-20T10:02:26.222Z,10.01
2019-02-20T10:04:54.236Z,10.34
2019-02-20T10:07:22.400Z,10.44
2019-02-20T10:09:50.223Z,10.76
2019-02-20T10:12:18.139Z,10.82
2019-02-20T10:14:46.215Z,10.98
2019-02-20T10:17:13.956Z,11.06
2019-02-20T10:19:42.006Z,10.83
2019-02-20T10:22:10.092Z,10.82
2019-02-20T10:24:38.338Z,10.87
2019-02-20T10:27:06.335Z,10.94
2019-02-20T10:29:34.478Z,10.79
2019-02-20T10:32:02.501Z,10.69
2019-02-20T10:34:30.604Z,10.75
2019-02-20T10:36:58.552Z,10.71
2019-02-20T10:39:26.736Z,10.56
2019-02-20T10:41:54.665Z,10.72
2019-02-20T10:44:22.697Z,10.78
2019-02-20T10:46:50.710Z,10.78
2019-02-20T10:49:18.767Z,10.70
2019-02-20T10:51:46.638Z,10.75
2019-02-20T10:54:14.589Z,10.89
2019-02-20T10:56:42.495Z,10.72
2019-02-20T10:59:10.672Z,10.77
2019-02-20T11:01:38.522Z,10.69
2019-02-20T11:04:06.389Z,10.85
2019-02-20T11:06:34.471Z,11.06
2019-02-20T11:09:04.180Z,11.10
2019-02-20T11:11:33.980Z,11.20
2019-02-20T11:14:02.156Z,11.38
2019-02-20T11:16:30.139Z,11.61
2019-02-20T11:18:58.264Z,11.58
2019-02-20T11:21:26.095Z,11.70
2019-02-20T11:23:54.023Z,11.88
2019-02-20T11:26:22.318Z,11.94
2019-02-20T11:28:50.467Z,12.14
2019-02-20T11:31:18.266Z,12.46
2019-02-20T11:33:46.291Z,13.01
2019-02-20T11:36:14.338Z,13.36
2019-02-20T11:38:42.269Z,13.26
2019-02-20T11:41:10.234Z,13.55
2019-02-20T11:43:39.286Z,14.40
2019-02-20T11:46:07.307Z,14.47
2019-02-20T11:48:35.273Z,14.69
2019-02-20T11:51:03.202Z,14.23
2019-02-20T11:53:37.037Z,14.94
2019-02-20T11:56:01.287Z,15.52
2019-02-20T11:58:29.355Z,15.57
2019-02-20T12:00:57.460Z,15.68
2019-02-20T12:03:25.453Z,15.57
2019-02-20T12:05:53.396Z,16.32
2019-02-20T12:08:21.381Z,16.64
2019-02-20T12:10:49.306Z,16.87
2019-02-20T12:13:17.228Z,17.10
2019-02-20T12:15:45.267Z,17.03
2019-02-20T12:18:17.363Z,16.62
2019-02-20T12:20:43.713Z,16.25
2019-02-20T12:23:11.685Z,16.77
2019-02-20T12:25:39.786Z,16.62
2019-02-20T12:28:07.834Z,16.67
2019-02-20T12:30:38.074Z,16.81
2019-02-20T12:33:06.208Z,16.75
2019-02-20T12:35:34.230Z,16.76
2019-02-20T12:38:02.600Z,16.98
2019-02-20T12:40:30.363Z,16.38
2019-02-20T12:42:59.438Z,16.78
2019-02-20T12:45:27.443Z,16.58
2019-02-20T12:47:55.299Z,16.16
2019-02-20T12:50:24.742Z,16.30
2019-02-20T12:52:52.877Z,16.61
2019-02-20T12:55:20.706Z,16.68
2019-02-20T12:57:48.511Z,16.68
2019-02-20T13:00:17.829Z,16.55
2019-02-20T13:02:45.853Z,16.24
2019-02-20T13:05:13.820Z,16.05
2019-02-20T13:07:41.701Z,15.80
2019-02-20T13:10:10.221Z,15.50
2019-02-20T13:12:38.138Z,15.18
2019-02-20T13:15:06.254Z,15.56
2019-02-20T13:17:34.254Z,15.72
2019-02-20T13:20:02.250Z,16.02
2019-02-20T13:22:33.502Z,16.09
2019-02-20T13:25:01.571Z,16.25
2019-02-20T13:27:32.936Z,15.98
2019-02-20T13:30:01.146Z,16.23
2019-02-20T13:32:29.202Z,16.00
2019-02-20T13:34:56.940Z,16.07
2019-02-20T13:37:25.221Z,16.38
2019-02-20T13:39:53.303Z,16.81
2019-02-20T13:42:22.066Z,17.15
2019-02-20T13:44:49.997Z,17.43
2019-02-20T13:47:19.340Z,17.33
2019-02-20T13:49:47.314Z,17.52
2019-02-20T13:52:18.675Z,17.40
2019-02-20T13:54:46.495Z,17.14
2019-02-20T13:57:15.121Z,16.85
2019-02-20T13:59:43.049Z,16.60
2019-02-20T14:02:10.963Z,16.66
2019-02-20T14:04:38.940Z,16.60
2019-02-20T14:07:06.816Z,16.64
2019-02-20T14:09:35.063Z,16.40
2019-02-20T14:12:03.439Z,16.19
2019-02-20T14:14:31.336Z,16.29
2019-02-20T14:16:59.660Z,16.49
2019-02-20T14:19:27.907Z,16.27
2019-02-20T14:21:56.074Z,16.15
2019-02-20T14:24:24.419Z,15.73
2019-02-20T14:26:52.594Z,15.67
2019-02-20T14:29:21.468Z,15.57
2019-02-20T14:31:49.870Z,15.38
2019-02-20T14:34:18.114Z,14.98
2019-02-20T14:36:46.325Z,15.18
2019-02-20T14:39:14.234Z,15.07
2019-02-20T14:41:42.545Z,15.17
2019-02-20T14:44:10.790Z,15.06
2019-02-20T14:46:38.749Z,15.11
2019-02-20T14:49:07.351Z,15.17
2019-02-20T14:51:35.301Z,14.92
2019-02-20T14:54:03.516Z,14.70
2019-02-20T14:56:31.767Z,14.73
2019-02-20T14:58:59.561Z,14.62
2019-02-20T15:01:27.606Z,14.59
2019-02-20T15:03:55.553Z,14.56
2019-02-20T15:06:23.877Z,14.37
2019-02-20T15:08:51.845Z,14.18
2019-02-20T15:11:20.000Z,13.97
2019-02-20T15:13:47.878Z,13.78
2019-02-20T15:16:15.825Z,13.73
2019-02-20T15:18:43.854Z,13.67
2019-02-20T15:21:11.859Z,13.56
2019-02-20T15:23:39.695Z,13.41
2019-02-20T15:26:07.571Z,13.29
2019-02-20T15:28:35.765Z,13.25
2019-02-20T15:31:03.869Z,13.13
2019-02-20T15:33:31.779Z,13.11
2019-02-20T15:35:59.734Z,12.99
2019-02-20T15:38:27.784Z,12.88
2019-02-20T15:40:55.780Z,12.71
2019-02-20T15:43:23.886Z,12.62
2019-02-20T15:45:52.090Z,12.51
2019-02-20T15:48:23.398Z,12.54
2019-02-20T15:50:49.794Z,12.50
2019-02-20T15:53:17.913Z,12.53
2019-02-20T15:55:45.831Z,12.47
2019-02-20T15:58:13.825Z,12.43
2019-02-20T16:00:41.758Z,12.44
2019-02-20T16:03:09.691Z,12.37
2019-02-20T16:05:38.667Z,12.32
2019-02-20T16:08:07.355Z,12.24
2019-02-20T16:10:35.103Z,12.12
2019-02-20T16:13:02.944Z,12.07
2019-02-20T16:15:30.854Z,12.05
2019-02-20T16:17:58.912Z,11.98
2019-02-20T16:20:27.029Z,11.92
2019-02-20T16:22:55.054Z,11.86
2019-02-20T16:25:25.006Z,11.75
2019-02-20T16:27:52.863Z,11.78
2019-02-20T16:30:20.927Z,11.72
2019-02-20T16:32:48.569Z,11.62
2019-02-20T16:35:16.442Z,11.58
2019-02-20T16:37:44.323Z,11.52
2019-02-20T16:40:12.332Z,11.47
2019-02-20T16:42:40.237Z,11.40
2019-02-20T16:45:19.147Z,11.34
2019-02-20T16:47:47.148Z,11.24
2019-02-20T16:50:15.348Z,11.12
2019-02-20T16:52:43.379Z,10.99
2019-02-20T16:55:11.508Z,10.88
2019-02-20T16:57:39.434Z,10.75
2019-02-20T17:00:08.639Z,10.65
2019-02-20T17:02:36.608Z,10.54
2019-02-20T17:05:04.529Z,10.42
2019-02-20T17:07:32.447Z,10.31
2019-02-20T17:10:00.352Z,10.22
2019-02-20T17:12:28.288Z,10.08
2019-02-20T17:14:56.724Z,10.01
2019-02-20T17:17:24.742Z,9.95
2019-02-20T17:19:52.828Z,9.86
2019-02-20T17:22:20.659Z,9.74
2019-02-20T17:24:48.818Z,9.65
2019-02-20T17:27:16.699Z,9.51
2019-02-20T17:29:44.935Z,9.44
2019-02-20T17:32:12.942Z,9.35
2019-02-20T17:34:40.627Z,9.30
2019-02-20T17:37:08.687Z,9.27
2019-02-20T17:39:36.634Z,9.15
2019-02-20T17:42:04.545Z,9.00
2019-02-20T17:44:32.516Z,8.80
2019-02-20T17:47:00.535Z,8.81
2019-02-20T17:49:28.832Z,8.82
2019-02-20T17:51:56.673Z,8.79
2019-02-20T17:54:24.807Z,8.76
2019-02-20T17:56:53.051Z,8.72
2019-02-20T17:59:21.020Z,8.69
2019-02-20T18:01:49.056Z,8.62
2019-02-20T18:04:16.994Z,8.59
2019-02-20T18:06:46.248Z,8.60
2019-02-20T18:09:14.335Z,8.55
2019-02-20T18:11:42.236Z,8.50
2019-02-20T18:14:10.355Z,8.48
2019-02-20T18:16:38.517Z,8.39
2019-02-20T18:19:06.561Z,8.34
2019-02-20T18:21:34.532Z,8.32
2019-02-20T18:24:02.520Z,8.30
2019-02-20T18:26:31.567Z,8.23
2019-02-20T18:28:59.776Z,8.14
2019-02-20T18:31:27.732Z,8.05
2019-02-20T18:33:57.646Z,8.05
2019-02-20T18:36:26.755Z,7.96
2019-02-20T18:38:54.853Z,7.98
2019-02-20T18:41:23.142Z,8.05
2019-02-20T18:43:51.067Z,8.02
2019-02-20T18:46:19.071Z,8.00
2019-02-20T18:48:47.137Z,7.98
2019-02-20T18:51:15.073Z,7.95
2019-02-20T18:53:44.961Z,7.84
2019-02-20T18:56:12.893Z,7.83
2019-02-20T18:58:41.067Z,7.77
2019-02-20T19:01:09.376Z,7.75
2019-02-20T19:03:37.597Z,7.68
2019-02-20T19:06:05.602Z,7.73
2019-02-20T19:09:00.415Z,7.67
2019-02-20T19:11:35.069Z,7.67
2019-02-20T19:14:41.628Z,7.51
2019-02-20T19:17:51.075Z,7.50
2019-02-20T19:21:15.962Z,7.47
2019-02-20T19:24:34.847Z,7.33
2019-02-20T19:27:56.500Z,7.28
2019-02-20T19:31:00.869Z,7.31
2019-02-20T19:34:09.425Z,7.06
2019-02-20T19:36:55.136Z,7.02
2019-02-20T19:39:56.554Z,7.10
2019-02-20T19:43:09.191Z,7.03
2019-02-20T19:45:56.649Z,7.13
2019-02-20T19:49:03.142Z,6.98
2019-02-20T19:52:13.112Z,6.96
2019-02-20T19:55:08.642Z,6.98
2019-02-20T19:58:17.617Z,7.05
2019-02-20T20:01:06.865Z,7.05
2019-02-20T20:04:05.577Z,7.03
2019-02-20T20:07:02.574Z,6.90
2019-02-20T20:10:06.757Z,6.86
2019-02-20T20:13:25.461Z,6.74
2019-02-20T20:16:42.753Z,6.57
2019-02-20T20:19:29.682Z,6.58
2019-02-20T20:22:45.069Z,6.66
2019-02-20T20:25:48.094Z,6.65
2019-02-20T20:28:40.364Z,6.68
2019-02-20T20:31:46.075Z,6.66
2019-02-20T20:34:51.214Z,6.72
2019-02-20T20:37:46.822Z,6.66
2019-02-20T20:40:31.996Z,6.63
2019-02-20T20:43:53.553Z,6.57
2019-02-20T20:47:17.366Z,6.61
2019-02-20T20:50:14.161Z,6.60
2019-02-20T20:53:38.872Z,6.58
2019-02-20T20:57:00.681Z,6.54
2019-02-20T20:59:56.974Z,6.44
2019-02-20T21:02:48.591Z,6.45
2019-02-20T21:06:01.119Z,6.50
2019-02-20T21:08:36.666Z,6.45
2019-02-20T21:11:48.862Z,6.44
2019-02-20T21:14:48.289Z,6.45
2019-02-20T21:18:04.166Z,6.41
2019-02-20T21:20:57.777Z,6.47
2019-02-20T21:24:34.825Z,6.43
2019-02-20T21:27:42.966Z,6.45
2019-02-20T21:30:35.482Z,6.45
2019-02-20T21:33:54.066Z,6.43
2019-02-20T21:36:32.981Z,6.38
2019-02-20T21:39:51.546Z,6.33
2019-02-20T21:42:51.328Z,6.26
2019-02-20T21:45:50.999Z,6.20
2019-02-20T21:48:59.061Z,6.19
2019-02-20T21:52:20.623Z,6.24
2019-02-20T21:54:56.518Z,6.23
2019-02-20T21:57:53.117Z,6.22
2019-02-20T22:00:46.849Z,6.22
2019-02-20T22:03:53.664Z,6.20
2019-02-20T22:06:40.786Z,6.03
2019-02-20T22:09:34.289Z,6.14
2019-02-20T22:12:38.442Z,6.11
2019-02-20T22:15:37.762Z,6.13
2019-02-20T22:18:30.828Z,6.09
2019-02-20T22:21:52.566Z,6.09
2019-02-20T22:24:45.835Z,6.10
2019-02-20T22:27:39.499Z,6.05
2019-02-20T22:30:23.029Z,6.09
2019-02-20T22:33:32.682Z,6.06
2019-02-20T22:36:51.747Z,6.07
2019-02-20T22:39:56.091Z,6.04
2019-02-20T22:43:11.465Z,6.00
2019-02-20T22:45:56.211Z,5.95
2019-02-20T22:48:47.734Z,5.89
2019-02-20T22:51:22.258Z,5.86
2019-02-20T22:54:14.209Z,5.89
2019-02-20T22:57:36.518Z,5.83
2019-02-20T23:00:52.656Z,5.79
2019-02-20T23:04:04.925Z,5.73
2019-02-20T23:06:46.379Z,5.62
2019-02-20T23:10:13.281Z,5.57
2019-02-20T23:13:16.647Z,5.53
2019-02-20T23:15:44.694Z,5.37
2019-02-20T23:18:12.584Z,5.27
2019-02-20T23:20:40.534Z,5.24
2019-02-20T23:23:08.971Z,5.21
2019-02-20T23:25:37.101Z,5.16
2019-02-20T23:28:06.076Z,5.15
2019-02-20T23:30:34.068Z,5.03
2019-02-20T23:33:02.096Z,4.97
2019-02-20T23:35:30.192Z,4.94
2019-02-20T23:37:58.266Z,4.87
2019-02-20T23:40:27.733Z,4.84
2019-02-20T23:42:55.804Z,4.74
2019-02-20T23:45:23.664Z,4.74
2019-02-20T23:47:51.507Z,4.68
2019-02-20T23:50:19.637Z,4.64
2019-02-20T23:52:47.757Z,4.58
2019-02-20T23:55:15.834Z,4.45
2019-02-20T23:57:43.786Z,4.30
